Time;durP1;ratioP1;P1;durP2;ratioP2;P2;SDS_P1;SDS_P2;PMS_P1;PMS_P2;Temp;Humidity;BMP_temperature;BMP_pressure;BME280_temperature;BME280_humidity;BME280_pressure;Samples;Min_cycle;Max_cycle;Signal;HPM_P1;HPM_P2
2022/06/06 00:00:08;;;;;;;;;;;;;;;13.10;100.00;96118.28;1039693;28;20504;-71
2022/06/06 00:00:39;;;;;;;;;;;;;;;13.06;100.00;96122.53;1043352;28;19983;-70
2022/06/06 00:01:13;;;;;;;;;;;;;;;13.03;100.00;96123.84;1043515;28;19905;-70
2022/06/06 00:01:43;;;;;;;;;;;;;;;13.01;100.00;96123.34;1043367;28;19936;-70
2022/06/06 00:02:14;;;;;;;;;;;;;;;13.03;100.00;96123.06;1039162;28;20426;-70
2022/06/06 00:02:44;;;;;;;;;;;;;;;13.07;100.00;96113.56;1039232;28;20285;-69
2022/06/06 00:03:15;;;;;;;;;;;;;;;13.09;100.00;96117.50;1035363;28;20338;-72
2022/06/06 00:03:45;;;;;;;;;;;;;;;13.14;100.00;96114.06;1027385;28;20005;-69
2022/06/06 00:04:15;;;;;;;;;;;;;;;13.10;100.00;96113.03;1031091;28;19932;-70
2022/06/06 00:04:49;;;;;;;;;;;;;;;13.06;100.00;96115.41;1027167;28;19915;-70
2022/06/06 00:05:19;;;;;;;;;;;;;;;13.03;100.00;96118.56;1027867;28;20012;-69
2022/06/06 00:05:49;;;;;;;;;;;;;;;13.01;100.00;96115.44;1035724;28;19944;-70
2022/06/06 00:06:20;;;;;;;;;;;;;;;13.02;100.00;96110.94;1037421;28;19964;-70
2022/06/06 00:06:53;;;;;;;;;;;;;;;13.03;100.00;96115.16;1035231;28;19938;-70
2022/06/06 00:07:24;;;;;;;;;;;;;;;13.04;100.00;96109.59;1035323;28;20256;-68
2022/06/06 00:07:54;;;;;;;;;;;;;;;13.03;100.00;96108.03;1032083;28;20021;-71
2022/06/06 00:08:24;;;;;;;;;;;;;;;13.04;100.00;96114.09;1035580;28;19906;-71
2022/06/06 00:08:55;;;;;;;;;;;;;;;13.10;100.00;96105.13;1039388;28;20814;-70
2022/06/06 00:09:25;;;;;;;;;;;;;;;13.11;100.00;96104.88;1042481;28;19913;-70
2022/06/06 00:09:56;;;;;;;;;;;;;;;13.14;100.00;96103.50;1039061;28;20374;-73
2022/06/06 00:10:26;;;;;;;;;;;;;;;13.10;100.00;96105.91;1039105;28;19968;-71
2022/06/06 00:10:57;;;;;;;;;;;;;;;13.05;100.00;96102.50;1039191;28;19987;-73
2022/06/06 00:11:27;;;;;;;;;;;;;;;13.08;100.00;96100.13;1034700;28;19970;-70
2022/06/06 00:11:58;;;;;;;;;;;;;;;13.08;100.00;96100.13;1034968;28;19955;-71
2022/06/06 00:12:28;;;;;;;;;;;;;;;13.08;100.00;96104.63;1039385;28;19941;-70
2022/06/06 00:12:58;;;;;;;;;;;;;;;13.03;100.00;96100.13;1035001;28;19913;-69
2022/06/06 00:13:28;;;;;;;;;;;;;;;13.03;100.00;96101.97;1039474;28;19976;-72
2022/06/06 00:13:59;;;;;;;;;;;;;;;13.01;100.00;96096.19;1043381;28;20317;-70
2022/06/06 00:14:29;;;;;;;;;;;;;;;12.97;100.00;96096.72;1043238;28;19924;-70
2022/06/06 00:14:59;;;;;;;;;;;;;;;13.01;100.00;96099.63;1042997;28;19935;-71
2022/06/06 00:15:29;;;;;;;;;;;;;;;13.08;100.00;96104.63;1043244;28;19924;-70
2022/06/06 00:16:00;;;;;;;;;;;;;;;13.07;100.00;96095.09;1043357;28;19913;-69
2022/06/06 00:16:31;;;;;;;;;;;;;;;13.02;100.00;96095.16;1039264;28;20011;-69
2022/06/06 00:17:01;;;;;;;;;;;;;;;13.09;100.00;96095.63;1038962;28;19924;-70
2022/06/06 00:17:31;;;;;;;;;;;;;;;13.09;100.00;96096.44;1039216;28;19917;-70
2022/06/06 00:18:02;;;;;;;;;;;;;;;13.09;100.00;96093.78;1039303;28;19917;-70
2022/06/06 00:18:33;;;;;;;;;;;;;;;13.04;100.00;96099.06;1043248;28;20027;-69
2022/06/06 00:19:03;;;;;;;;;;;;;;;13.03;100.00;96096.72;1043310;28;19913;-70
2022/06/06 00:19:33;;;;;;;;;;;;;;;13.05;100.00;96094.59;1043430;28;20446;-70
2022/06/06 00:20:04;;;;;;;;;;;;;;;13.06;100.00;96096.19;1043004;28;20305;-69
2022/06/06 00:20:35;;;;;;;;;;;;;;;13.07;100.00;96092.47;1042832;28;19917;-70
2022/06/06 00:21:07;;;;;;;;;;;;;;;13.11;100.00;96086.41;1039363;28;19976;-69
2022/06/06 00:21:37;;;;;;;;;;;;;;;13.15;100.00;96084.03;1038534;28;19941;-72
2022/06/06 00:22:08;;;;;;;;;;;;;;;13.12;100.00;96084.56;1035133;28;20390;-69
2022/06/06 00:22:38;;;;;;;;;;;;;;;13.10;100.00;96079.56;1035516;28;20011;-69
2022/06/06 00:23:08;;;;;;;;;;;;;;;13.08;100.00;96083.53;1039317;28;19917;-71
2022/06/06 00:23:38;;;;;;;;;;;;;;;13.06;100.00;96080.38;1043218;28;19952;-71
2022/06/06 00:24:09;;;;;;;;;;;;;;;13.10;100.00;96078.78;1039195;28;19971;-71
2022/06/06 00:24:39;;;;;;;;;;;;;;;13.10;100.00;96076.91;1043362;28;19920;-70
2022/06/06 00:25:09;;;;;;;;;;;;;;;13.10;100.00;96081.41;1043499;28;20433;-70
2022/06/06 00:25:40;;;;;;;;;;;;;;;13.11;100.00;96075.06;1038990;28;19920;-70
2022/06/06 00:26:11;;;;;;;;;;;;;;;13.10;100.00;96084.03;1043465;28;19920;-69
2022/06/06 00:26:42;;;;;;;;;;;;;;;13.07;100.00;96081.94;1034993;28;19917;-71
2022/06/06 00:27:12;;;;;;;;;;;;;;;13.06;100.00;96080.38;1031041;28;19925;-70
2022/06/06 00:27:42;;;;;;;;;;;;;;;13.06;100.00;96073.25;1035155;28;20028;-70
2022/06/06 00:28:13;;;;;;;;;;;;;;;13.08;100.00;96075.63;1035332;28;19949;-70
2022/06/06 00:28:44;;;;;;;;;;;;;;;13.08;100.00;96073.78;1035465;28;19909;-70
2022/06/06 00:29:15;;;;;;;;;;;;;;;13.12;100.00;96079.28;1039151;28;19956;-70
2022/06/06 00:29:49;;;;;;;;;;;;;;;13.11;100.00;96073.25;1035086;28;19914;-71
2022/06/06 00:30:20;;;;;;;;;;;;;;;13.07;100.00;96074.03;1035194;28;20279;-69
2022/06/06 00:30:57;;;;;;;;;;;;;;;13.08;100.00;96071.16;1031769;28;19969;-69
2022/06/06 00:34:48;;;;;;;;;;;;;;;13.17;100.00;96071.34;1047837;28;19916;-70
2022/06/06 00:35:20;;;;;;;;;;;;;;;13.13;100.00;96065.84;1043684;28;19999;-70
2022/06/06 00:35:50;;;;;;;;;;;;;;;13.10;100.00;96069.00;1042939;28;19925;-70
2022/06/06 00:36:23;;;;;;;;;;;;;;;13.11;100.00;96075.06;1039219;28;19913;-69
2022/06/06 00:36:53;;;;;;;;;;;;;;;13.11;100.00;96072.44;1035304;28;20430;-70
2022/06/06 00:37:27;;;;;;;;;;;;;;;13.09;100.00;96070.09;1035059;28;19913;-68
2022/06/06 00:37:57;;;;;;;;;;;;;;;13.08;100.00;96067.72;1036033;28;20032;-71
2022/06/06 00:38:28;;;;;;;;;;;;;;;13.10;100.00;96070.88;1036252;28;19918;-70
2022/06/06 00:39:02;;;;;;;;;;;;;;;13.10;100.00;96068.22;1039356;28;20008;-70
2022/06/06 00:39:32;;;;;;;;;;;;;;;13.09;100.00;96067.44;1039906;28;19980;-69
2022/06/06 00:40:03;;;;;;;;;;;;;;;13.09;100.00;96070.09;1044067;28;20503;-69
2022/06/06 00:40:33;;;;;;;;;;;;;;;13.12;100.00;96063.50;1043433;28;19970;-69
2022/06/06 00:41:06;;;;;;;;;;;;;;;13.09;100.00;96058.75;1039422;28;19979;-71
2022/06/06 00:41:44;;;;;;;;;;;;;;;13.04;100.00;96059.56;1034643;28;19925;-71
2022/06/06 00:42:21;;;;;;;;;;;;;;;13.04;100.00;96066.66;1032459;28;19918;-71
2022/06/06 00:42:51;;;;;;;;;;;;;;;13.02;100.00;96063.53;1031228;28;20017;-70
2022/06/06 00:43:25;;;;;;;;;;;;;;;13.05;100.00;96063.00;1028993;28;19914;-70
2022/06/06 00:44:05;;;;;;;;;;;;;;;13.03;100.00;96060.63;1032407;28;19964;-70
2022/06/06 00:44:38;;;;;;;;;;;;;;;13.00;100.00;96055.88;1036949;28;19957;-70
2022/06/06 00:45:20;;;;;;;;;;;;;;;13.01;100.00;96059.31;1035230;28;19913;-69
2022/06/06 00:45:51;;;;;;;;;;;;;;;12.97;100.00;96054.56;1036470;28;19996;-69
2022/06/06 00:46:26;;;;;;;;;;;;;;;12.95;100.00;96059.34;1037203;28;19912;-70
2022/06/06 00:47:13;;;;;;;;;;;;;;;12.93;100.00;96056.16;1037458;28;19956;-70
2022/06/06 00:47:45;;;;;;;;;;;;;;;12.97;100.00;96062.47;1035183;28;19979;-70
2022/06/06 00:48:36;;;;;;;;;;;;;;;12.97;100.00;96061.69;1031084;28;20367;-71
2022/06/06 00:49:06;;;;;;;;;;;;;;;13.02;100.00;96064.31;1035366;28;20411;-70
2022/06/06 00:49:37;;;;;;;;;;;;;;;13.02;100.00;96058.25;1034266;28;19913;-70
2022/06/06 00:50:10;;;;;;;;;;;;;;;13.00;100.00;96061.16;1031001;28;20386;-72
2022/06/06 00:50:40;;;;;;;;;;;;;;;12.98;100.00;96058.81;1027134;28;19902;-73
2022/06/06 00:51:10;;;;;;;;;;;;;;;12.94;100.00;96055.13;1030445;28;19906;-70
2022/06/06 00:51:41;;;;;;;;;;;;;;;12.98;100.00;96052.75;1030780;28;19902;-69
2022/06/06 00:52:13;;;;;;;;;;;;;;;12.97;100.00;96057.19;1037333;28;19905;-71
2022/06/06 00:52:44;;;;;;;;;;;;;;;12.94;100.00;96055.13;1039013;28;20017;-70
2022/06/06 00:53:16;;;;;;;;;;;;;;;12.98;100.00;96053.53;1035500;28;19906;-70
2022/06/06 00:53:52;;;;;;;;;;;;;;;12.96;100.00;96055.63;1039295;28;19931;-70
2022/06/06 00:54:22;;;;;;;;;;;;;;;12.97;100.00;96049.31;1038775;28;20004;-71
2022/06/06 00:54:53;;;;;;;;;;;;;;;12.98;100.00;96050.91;1040406;28;20256;-70
2022/06/06 00:55:24;;;;;;;;;;;;;;;13.01;100.00;96046.13;1043277;28;20144;-69
2022/06/06 00:55:56;;;;;;;;;;;;;;;13.02;100.00;96056.41;1039198;28;19951;-70
2022/06/06 00:56:30;;;;;;;;;;;;;;;12.98;100.00;96048.25;1035268;28;19940;-70
2022/06/06 00:57:02;;;;;;;;;;;;;;;12.98;100.00;96050.13;1035202;28;20310;-69
2022/06/06 00:57:33;;;;;;;;;;;;;;;12.97;100.00;96056.41;1036076;28;19909;-70
2022/06/06 00:58:08;;;;;;;;;;;;;;;12.95;100.00;96053.28;1035772;28;20049;-69
2022/06/06 00:58:40;;;;;;;;;;;;;;;12.96;100.00;96045.09;1035746;28;20028;-71
2022/06/06 00:59:12;;;;;;;;;;;;;;;12.95;100.00;96048.81;1039337;28;19901;-71
2022/06/06 00:59:42;;;;;;;;;;;;;;;12.90;100.00;96048.81;1039011;28;19935;-69
2022/06/06 01:00:14;;;;;;;;;;;;;;;12.95;100.00;96051.44;1035226;28;19905;-69
2022/06/06 01:00:44;;;;;;;;;;;;;;;12.98;100.00;96052.75;1031308;28;19906;-70
2022/06/06 01:01:15;;;;;;;;;;;;;;;12.92;100.00;96054.59;1035436;28;19906;-70
2022/06/06 01:01:45;;;;;;;;;;;;;;;12.92;100.00;96054.59;1034425;28;19924;-69
2022/06/06 01:02:16;;;;;;;;;;;;;;;12.96;100.00;96053.00;1035084;28;20157;-70
2022/06/06 01:02:48;;;;;;;;;;;;;;;12.94;100.00;96047.22;1034862;28;19913;-68
2022/06/06 01:03:19;;;;;;;;;;;;;;;12.93;100.00;96050.91;1031359;28;20001;-71
2022/06/06 01:03:49;;;;;;;;;;;;;;;12.91;100.00;96053.03;1031066;28;19910;-69
2022/06/06 01:04:23;;;;;;;;;;;;;;;12.96;100.00;96054.84;1031715;28;20534;-70
2022/06/06 01:04:53;;;;;;;;;;;;;;;12.96;100.00;96049.59;1031673;28;19980;-71
2022/06/06 01:05:23;;;;;;;;;;;;;;;12.97;100.00;96051.94;1031089;28;19933;-71
2022/06/06 01:05:54;;;;;;;;;;;;;;;12.96;100.00;96058.28;1028029;28;20383;-70
2022/06/06 01:06:24;;;;;;;;;;;;;;;12.95;100.00;96054.06;1033511;28;19960;-69
2022/06/06 01:06:55;;;;;;;;;;;;;;;12.98;100.00;96053.53;1030901;28;19934;-70
2022/06/06 01:07:25;;;;;;;;;;;;;;;12.97;100.00;96057.19;1027088;28;19976;-69
2022/06/06 01:07:55;;;;;;;;;;;;;;;12.95;100.00;96061.97;1026968;28;20346;-70
2022/06/06 01:08:26;;;;;;;;;;;;;;;12.94;100.00;96059.59;1031199;28;20225;-70
2022/06/06 01:08:58;;;;;;;;;;;;;;;12.98;100.00;96056.16;1034833;28;19944;-68
2022/06/06 01:09:31;;;;;;;;;;;;;;;12.96;100.00;96055.63;1039591;28;19906;-71
2022/06/06 01:10:01;;;;;;;;;;;;;;;12.98;100.00;96064.06;1039038;28;19909;-70
2022/06/06 01:10:31;;;;;;;;;;;;;;;12.96;100.00;96060.91;1039265;28;20255;-70
2022/06/06 01:11:01;;;;;;;;;;;;;;;12.96;100.00;96055.63;1035600;28;20057;-70
2022/06/06 01:11:39;;;;;;;;;;;;;;;12.93;100.00;96060.66;1034445;28;20489;-69
2022/06/06 01:12:14;;;;;;;;;;;;;;;12.95;100.00;96059.34;1031041;28;19989;-70
2022/06/06 01:12:47;;;;;;;;;;;;;;;12.89;100.00;96063.03;1032588;28;19906;-71
2022/06/06 01:13:17;;;;;;;;;;;;;;;12.88;100.00;96048.31;1032664;28;20051;-70
2022/06/06 01:13:48;;;;;;;;;;;;;;;12.90;100.00;96061.97;1031967;28;19978;-70
2022/06/06 01:14:22;;;;;;;;;;;;;;;12.92;100.00;96059.88;1035609;28;20297;-70
2022/06/06 01:14:55;;;;;;;;;;;;;;;12.89;100.00;96060.41;1035798;28;19913;-70
2022/06/06 01:15:26;;;;;;;;;;;;;;;12.90;100.00;96055.91;1035702;28;19913;-69
2022/06/06 01:16:05;;;;;;;;;;;;;;;12.88;100.00;96058.06;1039751;28;20425;-72
2022/06/06 01:17:05;;;;;;;;;;;;;;;12.98;100.00;96058.81;1037014;28;20008;-72
2022/06/06 01:17:44;;;;;;;;;;;;;;;13.00;100.00;96055.88;1030881;28;20439;-69
2022/06/06 01:18:26;;;;;;;;;;;;;;;12.94;100.00;96052.50;1040519;28;20294;-68
2022/06/06 01:19:12;;;;;;;;;;;;;;;12.92;100.00;96051.97;1047640;28;20401;-72
2022/06/06 01:20:01;;;;;;;;;;;;;;;12.92;100.00;96051.97;1047620;28;19966;-70
2022/06/06 01:20:50;;;;;;;;;;;;;;;12.88;100.00;96053.56;1043568;28;20464;-71
2022/06/06 01:21:28;;;;;;;;;;;;;;;12.88;100.00;96056.19;1043022;28;19912;-73
2022/06/06 01:22:02;;;;;;;;;;;;;;;12.87;100.00;96059.88;1039193;28;19909;-71
2022/06/06 01:22:56;;;;;;;;;;;;;;;12.86;100.00;96050.41;1043410;28;19955;-70
2022/06/06 01:23:29;;;;;;;;;;;;;;;12.87;100.00;96056.47;1039517;28;19921;-72
2022/06/06 01:24:05;;;;;;;;;;;;;;;12.83;100.00;96056.22;1043164;28;19916;-69
2022/06/06 01:25:04;;;;;;;;;;;;;;;12.83;100.00;96063.31;1039504;28;20465;-70
2022/06/06 01:25:53;;;;;;;;;;;;;;;12.85;100.00;96053.31;1026460;28;19914;-70
2022/06/06 01:26:30;;;;;;;;;;;;;;;12.83;100.00;96061.47;1041666;28;19898;-70
2022/06/06 01:27:14;;;;;;;;;;;;;;;12.85;100.00;96059.38;1043730;28;19913;-70
2022/06/06 01:28:16;;;;;;;;;;;;;;;12.82;100.00;96059.91;1043262;28;19908;-70
2022/06/06 01:28:49;;;;;;;;;;;;;;;12.88;100.00;96058.84;1026568;28;19930;-71
2022/06/06 01:29:23;;;;;;;;;;;;;;;12.89;100.00;96065.69;1023366;28;19926;-70
2022/06/06 01:29:56;;;;;;;;;;;;;;;12.94;100.00;96056.94;1032179;28;19946;-70
2022/06/06 01:30:29;;;;;;;;;;;;;;;12.89;100.00;96065.69;1035066;28;20779;-71
2022/06/06 01:31:01;;;;;;;;;;;;;;;12.88;100.00;96058.06;1036423;28;19917;-70
2022/06/06 01:31:36;;;;;;;;;;;;;;;12.84;100.00;96070.16;1030680;28;19914;-69
2022/06/06 01:32:18;;;;;;;;;;;;;;;12.86;100.00;96060.16;1032727;28;20370;-69
2022/06/06 01:32:49;;;;;;;;;;;;;;;12.88;100.00;96061.47;1034358;28;20427;-70
2022/06/06 01:33:19;;;;;;;;;;;;;;;12.91;100.00;96058.31;1036391;28;19960;-69
2022/06/06 01:33:54;;;;;;;;;;;;;;;12.94;100.00;96057.78;1039790;28;19967;-69
2022/06/06 01:34:29;;;;;;;;;;;;;;;12.94;100.00;96060.41;1039818;28;19913;-70
2022/06/06 01:34:59;;;;;;;;;;;;;;;12.94;100.00;96054.31;1035869;28;19917;-69
2022/06/06 01:35:33;;;;;;;;;;;;;;;12.90;100.00;96054.06;1035964;28;19913;-72
2022/06/06 01:36:04;;;;;;;;;;;;;;;12.91;100.00;96058.31;1036827;28;20279;-69
2022/06/06 01:36:34;;;;;;;;;;;;;;;12.87;100.00;96062.50;1036397;28;19955;-68
2022/06/06 01:37:21;;;;;;;;;;;;;;;12.85;100.00;96062.00;1031769;28;19909;-70
2022/06/06 01:37:51;;;;;;;;;;;;;;;12.88;100.00;96055.41;1030131;28;20472;-70
2022/06/06 01:38:21;;;;;;;;;;;;;;;12.88;100.00;96064.09;1027554;28;20018;-70
2022/06/06 01:38:52;;;;;;;;;;;;;;;12.87;100.00;96059.88;1030016;28;19917;-69
2022/06/06 01:39:22;;;;;;;;;;;;;;;12.88;100.00;96061.47;1031653;28;19953;-69
2022/06/06 01:39:53;;;;;;;;;;;;;;;12.85;100.00;96061.22;1035935;28;19936;-70
2022/06/06 01:40:23;;;;;;;;;;;;;;;12.83;100.00;96064.09;1035752;28;20004;-70
2022/06/06 01:40:54;;;;;;;;;;;;;;;12.81;100.00;96066.25;1035654;28;19967;-69
2022/06/06 01:41:32;;;;;;;;;;;;;;;12.84;100.00;96063.03;1035691;28;20537;-70
2022/06/06 01:42:13;;;;;;;;;;;;;;;12.83;100.00;96064.09;1036829;28;19953;-69
2022/06/06 01:42:46;;;;;;;;;;;;;;;12.83;100.00;96066.75;1034028;28;19953;-68
2022/06/06 01:43:18;;;;;;;;;;;;;;;12.82;100.00;96062.53;1035814;28;20012;-70
2022/06/06 01:43:51;;;;;;;;;;;;;;;12.82;100.00;96069.66;1033774;28;19910;-71
2022/06/06 01:44:30;;;;;;;;;;;;;;;12.79;100.00;96070.97;1032112;28;19972;-69
2022/06/06 01:45:08;;;;;;;;;;;;;;;12.78;100.00;96068.63;1035769;28;19913;-70
2022/06/06 01:45:41;;;;;;;;;;;;;;;12.82;100.00;96070.44;1034291;28;19914;-69
2022/06/06 01:46:12;;;;;;;;;;;;;;;12.81;100.00;96068.88;1038432;28;19909;-69
2022/06/06 01:46:42;;;;;;;;;;;;;;;12.80;100.00;96071.75;1035718;28;19913;-70
2022/06/06 01:47:14;;;;;;;;;;;;;;;12.81;100.00;96071.50;1036324;28;19952;-70
2022/06/06 01:47:47;;;;;;;;;;;;;;;12.82;100.00;96070.44;1038545;28;20081;-67
2022/06/06 01:48:21;;;;;;;;;;;;;;;12.79;100.00;96070.97;1035784;28;19924;-69
2022/06/06 01:48:51;;;;;;;;;;;;;;;12.77;100.00;96072.28;1032758;28;20470;-71
2022/06/06 01:49:23;;;;;;;;;;;;;;;12.76;100.00;96076.78;1032385;28;19910;-70
2022/06/06 01:49:55;;;;;;;;;;;;;;;12.78;100.00;96079.94;1032665;28;19949;-73
2022/06/06 01:50:25;;;;;;;;;;;;;;;12.74;100.00;96074.41;1036167;28;19909;-70
2022/06/06 01:50:55;;;;;;;;;;;;;;;12.76;100.00;96076.78;1035945;28;20363;-70
2022/06/06 01:51:27;;;;;;;;;;;;;;;12.74;100.00;96076.25;1035254;28;20132;-69
2022/06/06 01:51:58;;;;;;;;;;;;;;;12.76;100.00;96074.13;1034808;28;19913;-70
2022/06/06 01:52:28;;;;;;;;;;;;;;;12.75;100.00;96080.47;1031852;28;19910;-69
2022/06/06 01:53:01;;;;;;;;;;;;;;;12.70;100.00;96072.56;1031794;28;19920;-70
2022/06/06 01:53:34;;;;;;;;;;;;;;;12.75;100.00;96077.84;1035842;28;19945;-69
2022/06/06 01:54:04;;;;;;;;;;;;;;;12.72;100.00;96086.28;1032295;28;20077;-70
2022/06/06 01:54:34;;;;;;;;;;;;;;;12.77;100.00;96077.56;1039296;28;20398;-69
2022/06/06 01:55:05;;;;;;;;;;;;;;;12.79;100.00;96073.59;1039906;28;19924;-69
2022/06/06 01:55:36;;;;;;;;;;;;;;;12.79;100.00;96081.50;1036245;28;20441;-70
2022/06/06 01:56:07;;;;;;;;;;;;;;;12.78;100.00;96082.56;1035060;28;19913;-69
2022/06/06 01:56:40;;;;;;;;;;;;;;;12.79;100.00;96081.50;1030912;28;19949;-69
2022/06/06 01:57:11;;;;;;;;;;;;;;;12.78;100.00;96074.66;1028602;28;19917;-69
2022/06/06 01:57:41;;;;;;;;;;;;;;;12.75;100.00;96080.47;1032278;28;19918;-69
2022/06/06 01:58:16;;;;;;;;;;;;;;;12.75;100.00;96080.47;1031879;28;20436;-71
2022/06/06 01:58:50;;;;;;;;;;;;;;;12.77;100.00;96083.59;1034478;28;19925;-69
2022/06/06 01:59:21;;;;;;;;;;;;;;;12.79;100.00;96083.34;1035701;28;19936;-70
2022/06/06 01:59:51;;;;;;;;;;;;;;;12.76;100.00;96082.03;1033322;28;19929;-69
2022/06/06 02:00:21;;;;;;;;;;;;;;;12.79;100.00;96080.72;1032141;28;19914;-70
2022/06/06 02:00:52;;;;;;;;;;;;;;;12.78;100.00;96084.41;1032099;28;20354;-70
2022/06/06 02:01:22;;;;;;;;;;;;;;;12.77;100.00;96083.59;1035987;28;19913;-72
2022/06/06 02:01:52;;;;;;;;;;;;;;;12.78;100.00;96077.31;1035616;28;19913;-70
2022/06/06 02:02:23;;;;;;;;;;;;;;;12.79;100.00;96080.72;1036156;28;19910;-69
2022/06/06 02:02:53;;;;;;;;;;;;;;;12.78;100.00;96074.66;1040050;28;19917;-70
2022/06/06 02:03:23;;;;;;;;;;;;;;;12.76;100.00;96081.25;1040181;28;19975;-69
2022/06/06 02:03:54;;;;;;;;;;;;;;;12.70;100.00;96078.63;1040250;28;19924;-69
2022/06/06 02:04:24;;;;;;;;;;;;;;;12.73;100.00;96082.56;1044151;28;20016;-67
2022/06/06 02:04:54;;;;;;;;;;;;;;;12.73;100.00;96082.56;1044454;28;20274;-71
2022/06/06 02:05:25;;;;;;;;;;;;;;;12.70;100.00;96077.84;1044192;28;20000;-70
2022/06/06 02:05:55;;;;;;;;;;;;;;;12.70;100.00;96069.94;1044464;28;19916;-70
2022/06/06 02:06:25;;;;;;;;;;;;;;;12.66;100.00;96077.59;1040166;28;19925;-70
2022/06/06 02:06:56;;;;;;;;;;;;;;;12.66;100.00;96079.44;1040270;28;19926;-68
2022/06/06 02:07:26;;;;;;;;;;;;;;;12.62;100.00;96076.53;1040216;28;19921;-69
2022/06/06 02:07:57;;;;;;;;;;;;;;;12.60;100.00;96077.88;1044179;28;20424;-72
2022/06/06 02:08:27;;;;;;;;;;;;;;;12.59;100.00;96081.56;1048841;28;19955;-69
2022/06/06 02:09:00;;;;;;;;;;;;;;;12.58;100.00;96080.00;1040018;28;19916;-69
2022/06/06 02:09:32;;;;;;;;;;;;;;;12.57;100.00;96079.19;1035715;28;19913;-70
2022/06/06 02:10:03;;;;;;;;;;;;;;;12.54;100.00;96073.66;1036114;28;19917;-70
2022/06/06 02:10:33;;;;;;;;;;;;;;;12.56;100.00;96082.88;1037399;28;19953;-70
2022/06/06 02:11:03;;;;;;;;;;;;;;;12.60;100.00;96083.13;1036596;28;19910;-70
2022/06/06 02:11:33;;;;;;;;;;;;;;;12.64;100.00;96086.78;1035330;28;19918;-68
2022/06/06 02:12:04;;;;;;;;;;;;;;;12.65;100.00;96077.88;1035998;28;19952;-68
2022/06/06 02:12:34;;;;;;;;;;;;;;;12.66;100.00;96077.59;1036255;28;20007;-69
2022/06/06 02:13:04;;;;;;;;;;;;;;;12.69;100.00;96081.53;1044085;28;19915;-70
2022/06/06 02:13:35;;;;;;;;;;;;;;;12.64;100.00;96084.97;1044291;28;20031;-69
2022/06/06 02:14:05;;;;;;;;;;;;;;;12.71;100.00;96089.97;1044307;28;19920;-70
2022/06/06 02:14:36;;;;;;;;;;;;;;;12.69;100.00;96084.94;1039868;28;20016;-69
2022/06/06 02:15:07;;;;;;;;;;;;;;;12.68;100.00;96082.59;1036157;28;20354;-70
2022/06/06 02:15:37;;;;;;;;;;;;;;;12.68;100.00;96083.38;1035929;28;19913;-69
2022/06/06 02:16:07;;;;;;;;;;;;;;;12.68;100.00;96091.28;1036336;28;20040;-70
2022/06/06 02:16:38;;;;;;;;;;;;;;;12.67;100.00;96081.78;1040198;28;19909;-70
2022/06/06 02:17:08;;;;;;;;;;;;;;;12.67;100.00;96091.53;1040117;28;20436;-69
2022/06/06 02:17:38;;;;;;;;;;;;;;;12.67;100.00;96094.16;1044119;28;20461;-69
2022/06/06 02:18:09;;;;;;;;;;;;;;;12.66;100.00;96085.47;1040135;28;19917;-70
2022/06/06 02:18:39;;;;;;;;;;;;;;;12.65;100.00;96083.91;1044112;28;19924;-70
2022/06/06 02:19:11;;;;;;;;;;;;;;;12.65;100.00;96089.19;1040172;28;20003;-70
2022/06/06 02:19:42;;;;;;;;;;;;;;;12.61;100.00;96082.88;1036116;28;20004;-70
2022/06/06 02:20:13;;;;;;;;;;;;;;;12.60;100.00;96086.53;1040104;28;19917;-70
2022/06/06 02:20:44;;;;;;;;;;;;;;;12.62;100.00;96092.34;1036519;28;20248;-69
2022/06/06 02:21:16;;;;;;;;;;;;;;;12.59;100.00;96086.81;1036432;28;20307;-68
2022/06/06 02:21:46;;;;;;;;;;;;;;;12.54;100.00;96085.00;1039391;28;20420;-69
2022/06/06 02:22:16;;;;;;;;;;;;;;;12.53;100.00;96086.03;1032079;28;19968;-70
2022/06/06 02:22:47;;;;;;;;;;;;;;;12.55;100.00;96091.06;1036376;28;20008;-71
2022/06/06 02:23:17;;;;;;;;;;;;;;;12.53;100.00;96090.50;1040074;28;19913;-70
2022/06/06 02:23:48;;;;;;;;;;;;;;;12.49;100.00;96088.41;1040008;28;19913;-70
2022/06/06 02:24:19;;;;;;;;;;;;;;;12.47;100.00;96090.53;1048642;28;19916;-68
2022/06/06 02:24:49;;;;;;;;;;;;;;;12.44;100.00;96091.06;1048865;28;20377;-71
2022/06/06 02:25:19;;;;;;;;;;;;;;;12.41;100.00;96091.59;1044143;28;19963;-70
2022/06/06 02:25:50;;;;;;;;;;;;;;;12.37;100.00;96084.47;1040119;28;19920;-70
2022/06/06 02:26:20;;;;;;;;;;;;;;;12.33;100.00;96084.22;1040117;28;19913;-69
2022/06/06 02:26:53;;;;;;;;;;;;;;;12.30;100.00;96090.00;1040225;28;19917;-69
2022/06/06 02:27:23;;;;;;;;;;;;;;;12.28;100.00;96092.13;1040364;28;20019;-68
2022/06/06 02:27:54;;;;;;;;;;;;;;;12.25;100.00;96093.44;1044290;28;19917;-68
2022/06/06 02:28:25;;;;;;;;;;;;;;;12.25;100.00;96090.03;1044107;28;19940;-69
2022/06/06 02:28:55;;;;;;;;;;;;;;;12.24;100.00;96096.34;1044751;28;19928;-71
2022/06/06 02:29:25;;;;;;;;;;;;;;;12.21;100.00;96092.38;1040135;28;20375;-69
2022/06/06 02:29:56;;;;;;;;;;;;;;;12.19;100.00;96093.69;1035978;28;20423;-68
2022/06/06 02:30:27;;;;;;;;;;;;;;;12.14;100.00;96094.50;1031852;28;19922;-69
2022/06/06 02:30:57;;;;;;;;;;;;;;;12.15;100.00;96090.03;1032133;28;19913;-70
2022/06/06 02:31:28;;;;;;;;;;;;;;;12.11;100.00;96087.13;1035832;28;20512;-68
2022/06/06 02:31:58;;;;;;;;;;;;;;;12.12;100.00;96095.81;1039913;28;19927;-69
2022/06/06 02:32:28;;;;;;;;;;;;;;;12.10;100.00;96090.00;1043401;28;20349;-69
2022/06/06 02:32:59;;;;;;;;;;;;;;;12.08;100.00;96089.50;1048433;28;19917;-69
2022/06/06 02:33:29;;;;;;;;;;;;;;;12.07;100.00;96093.16;1048400;28;19924;-71
2022/06/06 02:33:59;;;;;;;;;;;;;;;12.05;100.00;96088.19;1044130;28;19917;-70
2022/06/06 02:34:30;;;;;;;;;;;;;;;12.04;100.00;96086.59;1039937;28;20019;-69
2022/06/06 02:35:00;;;;;;;;;;;;;;;12.02;100.00;96088.69;1040131;28;19913;-69
2022/06/06 02:35:31;;;;;;;;;;;;;;;12.01;100.00;96089.75;1040149;28;19993;-70
2022/06/06 02:36:02;;;;;;;;;;;;;;;12.01;100.00;96093.19;1040304;28;19913;-68
2022/06/06 02:36:33;;;;;;;;;;;;;;;11.97;100.00;96091.31;1040132;28;19921;-69
2022/06/06 02:37:04;;;;;;;;;;;;;;;11.95;100.00;96094.22;1040157;28;20358;-70
2022/06/06 02:37:34;;;;;;;;;;;;;;;11.95;100.00;96091.59;1040140;28;19948;-69
2022/06/06 02:38:04;;;;;;;;;;;;;;;11.88;100.00;96091.06;1036245;28;19914;-69
2022/06/06 02:38:34;;;;;;;;;;;;;;;11.86;100.00;96089.75;1031992;28;19916;-68
2022/06/06 02:39:05;;;;;;;;;;;;;;;11.86;100.00;96093.16;1035929;28;19960;-68
2022/06/06 02:39:35;;;;;;;;;;;;;;;11.87;100.00;96088.69;1036167;28;19924;-72
2022/06/06 02:40:06;;;;;;;;;;;;;;;11.85;100.00;96088.16;1036142;28;20428;-70
2022/06/06 02:40:36;;;;;;;;;;;;;;;11.86;100.00;96089.75;1039783;28;19960;-67
2022/06/06 02:41:09;;;;;;;;;;;;;;;11.88;100.00;96085.81;1036171;28;20303;-70
2022/06/06 02:41:40;;;;;;;;;;;;;;;11.89;100.00;96090.00;1035718;28;19945;-69
2022/06/06 02:42:10;;;;;;;;;;;;;;;11.83;100.00;96085.75;1036586;28;19913;-69
2022/06/06 02:42:40;;;;;;;;;;;;;;;11.86;100.00;96085.25;1040222;28;19924;-69
2022/06/06 02:43:15;;;;;;;;;;;;;;;11.85;100.00;96086.31;1043917;28;19933;-69
2022/06/06 02:43:45;;;;;;;;;;;;;;;11.80;100.00;96086.28;1043872;28;20310;-71
2022/06/06 02:44:15;;;;;;;;;;;;;;;11.76;100.00;96091.28;1039828;28;19932;-69
2022/06/06 02:44:46;;;;;;;;;;;;;;;11.73;100.00;96089.16;1040080;28;19968;-70
2022/06/06 02:45:17;;;;;;;;;;;;;;;11.72;100.00;96084.16;1036175;28;19972;-70
2022/06/06 02:45:48;;;;;;;;;;;;;;;11.77;100.00;96086.81;1040115;28;19916;-69
2022/06/06 02:46:18;;;;;;;;;;;;;;;11.75;100.00;96086.28;1040138;28;19943;-69
2022/06/06 02:46:49;;;;;;;;;;;;;;;11.72;100.00;96089.44;1040309;28;19963;-69
2022/06/06 02:47:20;;;;;;;;;;;;;;;11.75;100.00;96083.66;1040047;28;19908;-70
2022/06/06 02:47:51;;;;;;;;;;;;;;;11.70;100.00;96086.25;1040537;28;20353;-70
2022/06/06 02:48:21;;;;;;;;;;;;;;;11.68;100.00;96088.38;1044200;28;19908;-70
2022/06/06 02:48:51;;;;;;;;;;;;;;;11.68;100.00;96083.13;1044057;28;19913;-71